sensor_id;sensor_type;location;lat;lon;timestamp;P1;durP1;ratioP1;P2;durP2;ratioP2
15952;SDS011;8075;47.766;8.846;2024-03-23T00:54:05;2.40;;;2.20;;
15952;SDS011;8075;47.766;8.846;2024-03-23T00:56:31;4.07;;;2.53;;
15952;SDS011;8075;47.766;8.846;2024-03-23T00:58:57;3.40;;;2.30;;
15952;SDS011;8075;47.766;8.846;2024-03-23T01:01:23;2.90;;;2.30;;
15952;SDS011;8075;47.766;8.846;2024-03-23T01:03:49;3.70;;;2.20;;
15952;SDS011;8075;47.766;8.846;2024-03-23T01:06:15;3.47;;;2.20;;
15952;SDS011;8075;47.766;8.846;2024-03-23T01:08:41;4.13;;;2.40;;
15952;SDS011;8075;47.766;8.846;2024-03-23T01:11:07;2.95;;;2.25;;
15952;SDS011;8075;47.766;8.846;2024-03-23T01:13:33;4.30;;;2.60;;
15952;SDS011;8075;47.766;8.846;2024-03-23T01:15:59;3.17;;;2.33;;
15952;SDS011;8075;47.766;8.846;2024-03-23T01:18:25;2.50;;;2.30;;
15952;SDS011;8075;47.766;8.846;2024-03-23T01:20:51;2.92;;;2.35;;
15952;SDS011;8075;47.766;8.846;2024-03-23T01:23:17;4.32;;;2.40;;
15952;SDS011;8075;47.766;8.846;2024-03-23T01:25:43;2.90;;;2.25;;
15952;SDS011;8075;47.766;8.846;2024-03-23T01:28:09;2.60;;;2.40;;
15952;SDS011;8075;47.766;8.846;2024-03-23T01:30:35;3.50;;;2.60;;
15952;SDS011;8075;47.766;8.846;2024-03-23T01:33:01;3.40;;;2.22;;
15952;SDS011;8075;47.766;8.846;2024-03-23T01:35:27;2.70;;;2.30;;
15952;SDS011;8075;47.766;8.846;2024-03-23T01:37:53;2.95;;;2.65;;
15952;SDS011;8075;47.766;8.846;2024-03-23T01:40:20;2.87;;;2.57;;
15952;SDS011;8075;47.766;8.846;2024-03-23T01:42:55;2.63;;;2.42;;
15952;SDS011;8075;47.766;8.846;2024-03-23T01:45:21;3.90;;;2.47;;
15952;SDS011;8075;47.766;8.846;2024-03-23T01:47:48;3.17;;;2.60;;
15952;SDS011;8075;47.766;8.846;2024-03-23T01:50:15;3.40;;;2.47;;
15952;SDS011;8075;47.766;8.846;2024-03-23T01:52:41;3.03;;;2.08;;
15952;SDS011;8075;47.766;8.846;2024-03-23T01:55:07;2.87;;;2.30;;
15952;SDS011;8075;47.766;8.846;2024-03-23T01:57:33;3.00;;;2.45;;
15952;SDS011;8075;47.766;8.846;2024-03-23T01:59:59;3.33;;;2.25;;
15952;SDS011;8075;47.766;8.846;2024-03-23T02:02:25;6.00;;;2.20;;
15952;SDS011;8075;47.766;8.846;2024-03-23T02:04:51;2.47;;;2.20;;
15952;SDS011;8075;47.766;8.846;2024-03-23T02:07:17;2.25;;;1.95;;
15952;SDS011;8075;47.766;8.846;2024-03-23T02:09:43;2.45;;;2.25;;
15952;SDS011;8075;47.766;8.846;2024-03-23T02:12:09;2.92;;;2.30;;
15952;SDS011;8075;47.766;8.846;2024-03-23T02:14:35;2.92;;;2.60;;
15952;SDS011;8075;47.766;8.846;2024-03-23T02:17:01;3.90;;;2.30;;
15952;SDS011;8075;47.766;8.846;2024-03-23T02:19:27;2.47;;;2.22;;
15952;SDS011;8075;47.766;8.846;2024-03-23T02:21:53;2.83;;;2.40;;
15952;SDS011;8075;47.766;8.846;2024-03-23T02:24:19;2.70;;;2.30;;
15952;SDS011;8075;47.766;8.846;2024-03-23T02:26:45;3.63;;;2.65;;
15952;SDS011;8075;47.766;8.846;2024-03-23T02:29:13;3.55;;;2.72;;
15952;SDS011;8075;47.766;8.846;2024-03-23T02:31:39;2.80;;;2.60;;
15952;SDS011;8075;47.766;8.846;2024-03-23T02:34:05;3.22;;;2.60;;
15952;SDS011;8075;47.766;8.846;2024-03-23T02:36:31;3.00;;;2.65;;
15952;SDS011;8075;47.766;8.846;2024-03-23T02:38:57;3.45;;;2.78;;
15952;SDS011;8075;47.766;8.846;2024-03-23T02:41:23;3.83;;;2.75;;
15952;SDS011;8075;47.766;8.846;2024-03-23T02:43:49;2.92;;;2.63;;
15952;SDS011;8075;47.766;8.846;2024-03-23T02:46:16;3.58;;;2.80;;
15952;SDS011;8075;47.766;8.846;2024-03-23T02:48:41;3.95;;;3.13;;
15952;SDS011;8075;47.766;8.846;2024-03-23T02:51:08;3.47;;;2.97;;
15952;SDS011;8075;47.766;8.846;2024-03-23T02:53:34;4.10;;;3.10;;
15952;SDS011;8075;47.766;8.846;2024-03-23T02:56:00;3.53;;;2.87;;
15952;SDS011;8075;47.766;8.846;2024-03-23T02:58:26;4.22;;;3.25;;
15952;SDS011;8075;47.766;8.846;2024-03-23T03:00:52;4.50;;;2.95;;
15952;SDS011;8075;47.766;8.846;2024-03-23T03:03:18;3.33;;;3.00;;
15952;SDS011;8075;47.766;8.846;2024-03-23T03:05:44;3.03;;;2.63;;
15952;SDS011;8075;47.766;8.846;2024-03-23T03:08:10;3.30;;;2.83;;
15952;SDS011;8075;47.766;8.846;2024-03-23T03:10:36;3.92;;;2.78;;
15952;SDS011;8075;47.766;8.846;2024-03-23T03:13:02;3.17;;;2.90;;
15952;SDS011;8075;47.766;8.846;2024-03-23T03:15:28;4.07;;;2.95;;
15952;SDS011;8075;47.766;8.846;2024-03-23T03:17:54;3.33;;;2.70;;
15952;SDS011;8075;47.766;8.846;2024-03-23T03:20:20;2.88;;;2.58;;
15952;SDS011;8075;47.766;8.846;2024-03-23T03:22:48;4.03;;;2.80;;
15952;SDS011;8075;47.766;8.846;2024-03-23T03:25:14;4.47;;;2.80;;
15952;SDS011;8075;47.766;8.846;2024-03-23T03:27:40;3.05;;;2.70;;
15952;SDS011;8075;47.766;8.846;2024-03-23T03:30:06;3.10;;;2.90;;
15952;SDS011;8075;47.766;8.846;2024-03-23T03:32:33;4.50;;;3.00;;
15952;SDS011;8075;47.766;8.846;2024-03-23T03:34:59;2.85;;;2.55;;
15952;SDS011;8075;47.766;8.846;2024-03-23T03:37:25;3.13;;;2.60;;
15952;SDS011;8075;47.766;8.846;2024-03-23T03:39:51;3.03;;;2.70;;
15952;SDS011;8075;47.766;8.846;2024-03-23T03:42:17;3.17;;;2.88;;
15952;SDS011;8075;47.766;8.846;2024-03-23T03:44:43;3.17;;;2.67;;
15952;SDS011;8075;47.766;8.846;2024-03-23T03:47:09;2.83;;;2.50;;
15952;SDS011;8075;47.766;8.846;2024-03-23T03:49:35;3.85;;;2.63;;
15952;SDS011;8075;47.766;8.846;2024-03-23T03:52:01;2.95;;;2.22;;
15952;SDS011;8075;47.766;8.846;2024-03-23T03:54:27;3.20;;;2.42;;
15952;SDS011;8075;47.766;8.846;2024-03-23T03:56:53;2.70;;;2.50;;
15952;SDS011;8075;47.766;8.846;2024-03-23T03:59:19;2.60;;;2.33;;
15952;SDS011;8075;47.766;8.846;2024-03-23T04:01:45;2.90;;;2.60;;
15952;SDS011;8075;47.766;8.846;2024-03-23T04:04:11;2.47;;;2.28;;
15952;SDS011;8075;47.766;8.846;2024-03-23T04:06:38;2.50;;;2.30;;
15952;SDS011;8075;47.766;8.846;2024-03-23T04:09:04;2.40;;;2.20;;
15952;SDS011;8075;47.766;8.846;2024-03-23T04:11:31;2.38;;;2.17;;
15952;SDS011;8075;47.766;8.846;2024-03-23T04:13:57;3.17;;;2.25;;
15952;SDS011;8075;47.766;8.846;2024-03-23T04:16:30;2.63;;;2.42;;
15952;SDS011;8075;47.766;8.846;2024-03-23T04:18:56;2.85;;;2.50;;
15952;SDS011;8075;47.766;8.846;2024-03-23T04:21:22;3.35;;;2.70;;
15952;SDS011;8075;47.766;8.846;2024-03-23T04:23:48;4.78;;;3.08;;
15952;SDS011;8075;47.766;8.846;2024-03-23T04:26:15;3.05;;;2.75;;
15952;SDS011;8075;47.766;8.846;2024-03-23T04:28:41;2.65;;;2.45;;
15952;SDS011;8075;47.766;8.846;2024-03-23T04:31:08;3.08;;;2.60;;
15952;SDS011;8075;47.766;8.846;2024-03-23T04:33:34;3.53;;;2.63;;
15952;SDS011;8075;47.766;8.846;2024-03-23T04:35:59;2.88;;;2.50;;
15952;SDS011;8075;47.766;8.846;2024-03-23T04:38:26;4.47;;;2.42;;
15952;SDS011;8075;47.766;8.846;2024-03-23T04:40:58;3.35;;;2.60;;
15952;SDS011;8075;47.766;8.846;2024-03-23T04:43:25;3.80;;;2.70;;
15952;SDS011;8075;47.766;8.846;2024-03-23T04:45:51;2.97;;;2.67;;
15952;SDS011;8075;47.766;8.846;2024-03-23T04:48:19;2.93;;;2.50;;
15952;SDS011;8075;47.766;8.846;2024-03-23T04:50:45;4.15;;;2.70;;
15952;SDS011;8075;47.766;8.846;2024-03-23T04:53:11;3.38;;;2.83;;
15952;SDS011;8075;47.766;8.846;2024-03-23T04:55:37;2.78;;;2.13;;
15952;SDS011;8075;47.766;8.846;2024-03-23T04:58:03;3.00;;;2.40;;
15952;SDS011;8075;47.766;8.846;2024-03-23T05:00:29;3.15;;;2.60;;
15952;SDS011;8075;47.766;8.846;2024-03-23T05:02:55;3.50;;;2.58;;
15952;SDS011;8075;47.766;8.846;2024-03-23T05:05:21;2.63;;;2.40;;
15952;SDS011;8075;47.766;8.846;2024-03-23T05:07:47;2.72;;;2.38;;
15952;SDS011;8075;47.766;8.846;2024-03-23T05:10:13;4.03;;;3.08;;
15952;SDS011;8075;47.766;8.846;2024-03-23T05:12:39;4.45;;;3.05;;
15952;SDS011;8075;47.766;8.846;2024-03-23T05:15:05;3.38;;;2.65;;
15952;SDS011;8075;47.766;8.846;2024-03-23T05:17:32;2.85;;;2.65;;
15952;SDS011;8075;47.766;8.846;2024-03-23T05:19:59;3.85;;;3.28;;
15952;SDS011;8075;47.766;8.846;2024-03-23T05:22:25;4.38;;;3.20;;
15952;SDS011;8075;47.766;8.846;2024-03-23T05:24:52;3.78;;;3.40;;
15952;SDS011;8075;47.766;8.846;2024-03-23T05:27:18;3.63;;;3.33;;
15952;SDS011;8075;47.766;8.846;2024-03-23T05:29:44;3.40;;;3.10;;
15952;SDS011;8075;47.766;8.846;2024-03-23T05:32:10;3.38;;;3.08;;
15952;SDS011;8075;47.766;8.846;2024-03-23T05:34:36;3.17;;;2.83;;
15952;SDS011;8075;47.766;8.846;2024-03-23T05:37:02;4.68;;;3.10;;
15952;SDS011;8075;47.766;8.846;2024-03-23T05:39:28;3.90;;;3.20;;
15952;SDS011;8075;47.766;8.846;2024-03-23T05:41:54;3.40;;;3.10;;
15952;SDS011;8075;47.766;8.846;2024-03-23T05:44:20;3.35;;;3.05;;
15952;SDS011;8075;47.766;8.846;2024-03-23T05:46:46;3.43;;;3.13;;
15952;SDS011;8075;47.766;8.846;2024-03-23T05:49:13;3.75;;;3.20;;
15952;SDS011;8075;47.766;8.846;2024-03-23T05:51:39;3.15;;;2.85;;
15952;SDS011;8075;47.766;8.846;2024-03-23T05:54:05;3.25;;;2.95;;
15952;SDS011;8075;47.766;8.846;2024-03-23T05:56:31;3.55;;;3.25;;
15952;SDS011;8075;47.766;8.846;2024-03-23T05:58:57;3.47;;;3.17;;
15952;SDS011;8075;47.766;8.846;2024-03-23T06:01:23;4.20;;;2.95;;
15952;SDS011;8075;47.766;8.846;2024-03-23T06:03:49;3.20;;;2.90;;
15952;SDS011;8075;47.766;8.846;2024-03-23T06:06:16;3.85;;;3.03;;
15952;SDS011;8075;47.766;8.846;2024-03-23T06:08:42;3.78;;;3.33;;
15952;SDS011;8075;47.766;8.846;2024-03-23T06:11:08;4.03;;;3.53;;
15952;SDS011;8075;47.766;8.846;2024-03-23T06:13:34;3.90;;;3.50;;
15952;SDS011;8075;47.766;8.846;2024-03-23T06:16:00;3.83;;;3.40;;
15952;SDS011;8075;47.766;8.846;2024-03-23T06:18:26;3.83;;;3.53;;
15952;SDS011;8075;47.766;8.846;2024-03-23T06:20:53;4.50;;;4.10;;
15952;SDS011;8075;47.766;8.846;2024-03-23T06:23:19;3.90;;;3.60;;
15952;SDS011;8075;47.766;8.846;2024-03-23T06:25:45;4.38;;;3.95;;
15952;SDS011;8075;47.766;8.846;2024-03-23T06:28:11;4.22;;;3.92;;
15952;SDS011;8075;47.766;8.846;2024-03-23T06:30:37;4.75;;;4.00;;
15952;SDS011;8075;47.766;8.846;2024-03-23T06:33:03;4.25;;;3.95;;
15952;SDS011;8075;47.766;8.846;2024-03-23T06:35:30;4.57;;;4.18;;
15952;SDS011;8075;47.766;8.846;2024-03-23T06:37:56;4.13;;;3.30;;
15952;SDS011;8075;47.766;8.846;2024-03-23T06:40:23;4.82;;;3.30;;
15952;SDS011;8075;47.766;8.846;2024-03-23T06:42:49;3.28;;;2.97;;
15952;SDS011;8075;47.766;8.846;2024-03-23T06:45:16;3.47;;;3.00;;
15952;SDS011;8075;47.766;8.846;2024-03-23T06:47:42;3.40;;;3.10;;
15952;SDS011;8075;47.766;8.846;2024-03-23T06:50:08;3.20;;;2.83;;
15952;SDS011;8075;47.766;8.846;2024-03-23T06:52:35;3.67;;;3.00;;
15952;SDS011;8075;47.766;8.846;2024-03-23T06:55:01;3.47;;;2.65;;
15952;SDS011;8075;47.766;8.846;2024-03-23T06:57:29;3.47;;;2.70;;
15952;SDS011;8075;47.766;8.846;2024-03-23T06:59:55;2.47;;;2.27;;
15952;SDS011;8075;47.766;8.846;2024-03-23T07:02:21;2.55;;;2.35;;
15952;SDS011;8075;47.766;8.846;2024-03-23T07:04:47;2.65;;;2.42;;
15952;SDS011;8075;47.766;8.846;2024-03-23T07:07:13;2.60;;;2.40;;
15952;SDS011;8075;47.766;8.846;2024-03-23T07:09:39;2.30;;;2.03;;
15952;SDS011;8075;47.766;8.846;2024-03-23T07:12:05;2.53;;;2.33;;
15952;SDS011;8075;47.766;8.846;2024-03-23T07:14:31;2.47;;;2.27;;
15952;SDS011;8075;47.766;8.846;2024-03-23T07:16:57;2.50;;;2.30;;
15952;SDS011;8075;47.766;8.846;2024-03-23T07:19:23;2.60;;;2.22;;
15952;SDS011;8075;47.766;8.846;2024-03-23T07:21:49;2.85;;;2.55;;
15952;SDS011;8075;47.766;8.846;2024-03-23T07:24:15;2.83;;;2.53;;
15952;SDS011;8075;47.766;8.846;2024-03-23T07:26:41;2.67;;;2.20;;
15952;SDS011;8075;47.766;8.846;2024-03-23T07:29:08;2.30;;;2.10;;
15952;SDS011;8075;47.766;8.846;2024-03-23T07:31:34;2.57;;;2.37;;
15952;SDS011;8075;47.766;8.846;2024-03-23T07:34:00;2.95;;;2.20;;
15952;SDS011;8075;47.766;8.846;2024-03-23T07:36:26;2.50;;;2.30;;
15952;SDS011;8075;47.766;8.846;2024-03-23T07:38:52;2.90;;;2.60;;
15952;SDS011;8075;47.766;8.846;2024-03-23T07:41:19;2.77;;;2.57;;
15952;SDS011;8075;47.766;8.846;2024-03-23T07:43:45;3.50;;;3.13;;
15952;SDS011;8075;47.766;8.846;2024-03-23T07:46:12;3.38;;;2.88;;
15952;SDS011;8075;47.766;8.846;2024-03-23T07:48:38;3.58;;;3.28;;
15952;SDS011;8075;47.766;8.846;2024-03-23T07:51:08;2.80;;;2.60;;
15952;SDS011;8075;47.766;8.846;2024-03-23T07:53:35;2.75;;;2.22;;
15952;SDS011;8075;47.766;8.846;2024-03-23T07:56:08;1.73;;;1.47;;
15952;SDS011;8075;47.766;8.846;2024-03-23T07:58:37;1.60;;;1.30;;
15952;SDS011;8075;47.766;8.846;2024-03-23T08:01:04;1.17;;;0.30;;
15952;SDS011;8075;47.766;8.846;2024-03-23T08:03:30;0.55;;;0.45;;
15952;SDS011;8075;47.766;8.846;2024-03-23T08:05:56;0.47;;;0.30;;
15952;SDS011;8075;47.766;8.846;2024-03-23T08:08:22;0.28;;;0.22;;
15952;SDS011;8075;47.766;8.846;2024-03-23T08:10:51;0.40;;;0.30;;
15952;SDS011;8075;47.766;8.846;2024-03-23T08:13:18;0.40;;;0.38;;
15952;SDS011;8075;47.766;8.846;2024-03-23T08:15:45;0.30;;;0.30;;
15952;SDS011;8075;47.766;8.846;2024-03-23T08:18:11;0.93;;;0.50;;
15952;SDS011;8075;47.766;8.846;2024-03-23T08:20:38;0.20;;;0.20;;
15952;SDS011;8075;47.766;8.846;2024-03-23T08:23:07;0.20;;;0.20;;
15952;SDS011;8075;47.766;8.846;2024-03-23T08:25:34;0.22;;;0.20;;
15952;SDS011;8075;47.766;8.846;2024-03-23T08:28:00;0.20;;;0.20;;
15952;SDS011;8075;47.766;8.846;2024-03-23T08:30:27;0.40;;;0.20;;
15952;SDS011;8075;47.766;8.846;2024-03-23T08:32:54;0.20;;;0.20;;
15952;SDS011;8075;47.766;8.846;2024-03-23T08:35:20;0.30;;;0.20;;
15952;SDS011;8075;47.766;8.846;2024-03-23T08:37:46;1.10;;;0.30;;
15952;SDS011;8075;47.766;8.846;2024-03-23T08:40:12;0.40;;;0.20;;
15952;SDS011;8075;47.766;8.846;2024-03-23T08:42:38;0.20;;;0.20;;
15952;SDS011;8075;47.766;8.846;2024-03-23T08:45:04;0.30;;;0.20;;
15952;SDS011;8075;47.766;8.846;2024-03-23T08:47:33;0.20;;;0.20;;
15952;SDS011;8075;47.766;8.846;2024-03-23T08:50:00;0.25;;;0.20;;
15952;SDS011;8075;47.766;8.846;2024-03-23T08:52:26;0.30;;;0.22;;
15952;SDS011;8075;47.766;8.846;2024-03-23T08:54:54;0.60;;;0.20;;
15952;SDS011;8075;47.766;8.846;2024-03-23T08:57:21;0.50;;;0.20;;
15952;SDS011;8075;47.766;8.846;2024-03-23T08:59:47;0.33;;;0.33;;
15952;SDS011;8075;47.766;8.846;2024-03-23T09:02:13;0.80;;;0.30;;
15952;SDS011;8075;47.766;8.846;2024-03-23T09:04:39;1.40;;;0.40;;
15952;SDS011;8075;47.766;8.846;2024-03-23T09:07:05;1.40;;;0.43;;
15952;SDS011;8075;47.766;8.846;2024-03-23T09:09:31;0.60;;;0.30;;
15952;SDS011;8075;47.766;8.846;2024-03-23T09:11:56;1.60;;;0.30;;
15952;SDS011;8075;47.766;8.846;2024-03-23T09:14:22;0.73;;;0.40;;
15952;SDS011;8075;47.766;8.846;2024-03-23T09:16:51;0.90;;;0.50;;
15952;SDS011;8075;47.766;8.846;2024-03-23T09:19:18;0.40;;;0.20;;
15952;SDS011;8075;47.766;8.846;2024-03-23T09:21:44;0.60;;;0.30;;
15952;SDS011;8075;47.766;8.846;2024-03-23T09:24:10;0.60;;;0.30;;
15952;SDS011;8075;47.766;8.846;2024-03-23T09:26:36;0.50;;;0.40;;
15952;SDS011;8075;47.766;8.846;2024-03-23T09:29:02;0.55;;;0.30;;
15952;SDS011;8075;47.766;8.846;2024-03-23T09:31:29;0.35;;;0.30;;
15952;SDS011;8075;47.766;8.846;2024-03-23T09:33:56;0.88;;;0.70;;
15952;SDS011;8075;47.766;8.846;2024-03-23T09:36:22;0.95;;;0.60;;
15952;SDS011;8075;47.766;8.846;2024-03-23T09:38:48;1.20;;;0.63;;
15952;SDS011;8075;47.766;8.846;2024-03-23T09:41:14;1.08;;;0.57;;
15952;SDS011;8075;47.766;8.846;2024-03-23T09:43:40;1.25;;;0.60;;
15952;SDS011;8075;47.766;8.846;2024-03-23T09:46:07;1.38;;;0.60;;
15952;SDS011;8075;47.766;8.846;2024-03-23T09:48:33;1.65;;;0.60;;
15952;SDS011;8075;47.766;8.846;2024-03-23T09:50:59;1.08;;;0.47;;
15952;SDS011;8075;47.766;8.846;2024-03-23T09:53:25;1.35;;;0.70;;
15952;SDS011;8075;47.766;8.846;2024-03-23T09:55:52;11.82;;;0.82;;
15952;SDS011;8075;47.766;8.846;2024-03-23T09:58:18;1.90;;;0.90;;
15952;SDS011;8075;47.766;8.846;2024-03-23T10:00:44;3.10;;;1.00;;
15952;SDS011;8075;47.766;8.846;2024-03-23T10:03:10;2.60;;;1.33;;
15952;SDS011;8075;47.766;8.846;2024-03-23T10:05:37;2.58;;;1.13;;
15952;SDS011;8075;47.766;8.846;2024-03-23T10:08:17;3.17;;;1.00;;
15952;SDS011;8075;47.766;8.846;2024-03-23T10:10:44;2.40;;;0.93;;
15952;SDS011;8075;47.766;8.846;2024-03-23T10:13:10;3.03;;;1.13;;
15952;SDS011;8075;47.766;8.846;2024-03-23T10:15:39;2.33;;;1.02;;
15952;SDS011;8075;47.766;8.846;2024-03-23T10:18:18;2.70;;;1.30;;
15952;SDS011;8075;47.766;8.846;2024-03-23T10:20:47;1.70;;;1.10;;
15952;SDS011;8075;47.766;8.846;2024-03-23T10:23:16;2.83;;;1.20;;
15952;SDS011;8075;47.766;8.846;2024-03-23T10:25:42;1.63;;;0.98;;
15952;SDS011;8075;47.766;8.846;2024-03-23T10:28:08;2.75;;;1.13;;
15952;SDS011;8075;47.766;8.846;2024-03-23T10:30:36;2.78;;;0.80;;
15952;SDS011;8075;47.766;8.846;2024-03-23T10:33:11;1.80;;;0.90;;
15952;SDS011;8075;47.766;8.846;2024-03-23T10:35:38;3.17;;;1.10;;
15952;SDS011;8075;47.766;8.846;2024-03-23T10:38:04;2.92;;;1.33;;
15952;SDS011;8075;47.766;8.846;2024-03-23T10:40:31;3.43;;;1.13;;
15952;SDS011;8075;47.766;8.846;2024-03-23T10:42:59;2.30;;;1.00;;
15952;SDS011;8075;47.766;8.846;2024-03-23T10:45:25;3.92;;;1.08;;
15952;SDS011;8075;47.766;8.846;2024-03-23T10:47:52;4.10;;;1.20;;
15952;SDS011;8075;47.766;8.846;2024-03-23T10:50:18;2.07;;;1.10;;
15952;SDS011;8075;47.766;8.846;2024-03-23T10:52:45;3.03;;;1.13;;
15952;SDS011;8075;47.766;8.846;2024-03-23T10:55:12;2.78;;;1.10;;
15952;SDS011;8075;47.766;8.846;2024-03-23T10:57:44;2.35;;;0.93;;
15952;SDS011;8075;47.766;8.846;2024-03-23T11:00:11;2.50;;;1.13;;
15952;SDS011;8075;47.766;8.846;2024-03-23T11:02:37;2.75;;;1.27;;
15952;SDS011;8075;47.766;8.846;2024-03-23T11:07:51;2.05;;;1.00;;
15952;SDS011;8075;47.766;8.846;2024-03-23T11:10:24;2.88;;;1.00;;
15952;SDS011;8075;47.766;8.846;2024-03-23T11:12:51;3.83;;;1.20;;
15952;SDS011;8075;47.766;8.846;2024-03-23T11:15:17;2.17;;;0.80;;
15952;SDS011;8075;47.766;8.846;2024-03-23T11:18:02;2.40;;;0.90;;
15952;SDS011;8075;47.766;8.846;2024-03-23T11:20:32;3.20;;;1.15;;
15952;SDS011;8075;47.766;8.846;2024-03-23T11:22:58;2.00;;;0.80;;
15952;SDS011;8075;47.766;8.846;2024-03-23T11:25:25;2.97;;;1.08;;
15952;SDS011;8075;47.766;8.846;2024-03-23T11:27:53;2.88;;;1.00;;
15952;SDS011;8075;47.766;8.846;2024-03-23T11:30:22;2.58;;;0.93;;
15952;SDS011;8075;47.766;8.846;2024-03-23T11:32:49;3.20;;;1.02;;
15952;SDS011;8075;47.766;8.846;2024-03-23T11:35:34;3.00;;;1.10;;
15952;SDS011;8075;47.766;8.846;2024-03-23T11:38:07;3.33;;;1.15;;
15952;SDS011;8075;47.766;8.846;2024-03-23T11:40:34;4.50;;;1.40;;
15952;SDS011;8075;47.766;8.846;2024-03-23T11:43:01;3.47;;;1.27;;
15952;SDS011;8075;47.766;8.846;2024-03-23T11:45:28;2.78;;;1.02;;
15952;SDS011;8075;47.766;8.846;2024-03-23T11:48:10;2.65;;;1.05;;
15952;SDS011;8075;47.766;8.846;2024-03-23T11:50:37;6.15;;;1.40;;
15952;SDS011;8075;47.766;8.846;2024-03-23T11:53:16;3.90;;;1.17;;
15952;SDS011;8075;47.766;8.846;2024-03-23T11:55:42;3.03;;;1.23;;
15952;SDS011;8075;47.766;8.846;2024-03-23T11:58:09;4.32;;;1.17;;
15952;SDS011;8075;47.766;8.846;2024-03-23T12:00:36;2.93;;;1.10;;
15952;SDS011;8075;47.766;8.846;2024-03-23T12:03:02;3.58;;;1.30;;
15952;SDS011;8075;47.766;8.846;2024-03-23T12:05:29;3.38;;;1.30;;
15952;SDS011;8075;47.766;8.846;2024-03-23T12:07:55;2.70;;;1.10;;
15952;SDS011;8075;47.766;8.846;2024-03-23T12:10:21;3.88;;;1.40;;
15952;SDS011;8075;47.766;8.846;2024-03-23T12:13:00;4.47;;;1.27;;
15952;SDS011;8075;47.766;8.846;2024-03-23T12:15:26;4.93;;;1.30;;
15952;SDS011;8075;47.766;8.846;2024-03-23T12:18:05;3.72;;;1.33;;
15952;SDS011;8075;47.766;8.846;2024-03-23T12:20:31;4.53;;;1.35;;
15952;SDS011;8075;47.766;8.846;2024-03-23T12:23:07;4.78;;;1.33;;
15952;SDS011;8075;47.766;8.846;2024-03-23T12:25:34;3.40;;;1.20;;
15952;SDS011;8075;47.766;8.846;2024-03-23T12:28:00;4.07;;;1.40;;
15952;SDS011;8075;47.766;8.846;2024-03-23T12:30:26;4.72;;;1.92;;
15952;SDS011;8075;47.766;8.846;2024-03-23T12:32:52;3.00;;;1.52;;
15952;SDS011;8075;47.766;8.846;2024-03-23T12:35:18;1.45;;;0.80;;
15952;SDS011;8075;47.766;8.846;2024-03-23T12:37:44;1.38;;;0.50;;
15952;SDS011;8075;47.766;8.846;2024-03-23T12:40:10;0.73;;;0.40;;
15952;SDS011;8075;47.766;8.846;2024-03-23T12:42:36;1.02;;;0.60;;
15952;SDS011;8075;47.766;8.846;2024-03-23T12:45:02;1.75;;;0.70;;
15952;SDS011;8075;47.766;8.846;2024-03-23T12:47:29;1.80;;;0.45;;
15952;SDS011;8075;47.766;8.846;2024-03-23T12:49:55;1.85;;;0.60;;
15952;SDS011;8075;47.766;8.846;2024-03-23T12:52:21;1.60;;;0.60;;
15952;SDS011;8075;47.766;8.846;2024-03-23T12:54:49;0.90;;;0.70;;
15952;SDS011;8075;47.766;8.846;2024-03-23T12:57:15;1.23;;;0.70;;
15952;SDS011;8075;47.766;8.846;2024-03-23T12:59:41;0.90;;;0.60;;
15952;SDS011;8075;47.766;8.846;2024-03-23T13:02:07;1.17;;;0.50;;
15952;SDS011;8075;47.766;8.846;2024-03-23T13:04:33;1.27;;;0.50;;
15952;SDS011;8075;47.766;8.846;2024-03-23T13:06:59;1.63;;;0.65;;
15952;SDS011;8075;47.766;8.846;2024-03-23T13:09:25;1.00;;;0.60;;
15952;SDS011;8075;47.766;8.846;2024-03-23T13:11:51;1.23;;;0.55;;
15952;SDS011;8075;47.766;8.846;2024-03-23T13:14:17;1.37;;;0.80;;
15952;SDS011;8075;47.766;8.846;2024-03-23T13:16:43;1.98;;;0.70;;
15952;SDS011;8075;47.766;8.846;2024-03-23T13:19:10;1.25;;;0.60;;
15952;SDS011;8075;47.766;8.846;2024-03-23T13:21:36;2.28;;;0.80;;
15952;SDS011;8075;47.766;8.846;2024-03-23T13:24:02;3.85;;;0.88;;
15952;SDS011;8075;47.766;8.846;2024-03-23T13:26:28;2.25;;;0.93;;
15952;SDS011;8075;47.766;8.846;2024-03-23T13:28:54;1.73;;;0.80;;
15952;SDS011;8075;47.766;8.846;2024-03-23T13:31:20;2.90;;;1.00;;
15952;SDS011;8075;47.766;8.846;2024-03-23T13:33:46;2.58;;;0.95;;
15952;SDS011;8075;47.766;8.846;2024-03-23T13:36:12;3.20;;;0.90;;
15952;SDS011;8075;47.766;8.846;2024-03-23T13:38:38;3.22;;;1.00;;
15952;SDS011;8075;47.766;8.846;2024-03-23T13:41:04;3.50;;;1.27;;
15952;SDS011;8075;47.766;8.846;2024-03-23T13:43:31;4.38;;;1.30;;
15952;SDS011;8075;47.766;8.846;2024-03-23T13:45:58;1.85;;;0.75;;
15952;SDS011;8075;47.766;8.846;2024-03-23T13:48:25;5.25;;;1.70;;
15952;SDS011;8075;47.766;8.846;2024-03-23T13:51:00;3.40;;;1.13;;
15952;SDS011;8075;47.766;8.846;2024-03-23T13:53:26;2.67;;;0.95;;
15952;SDS011;8075;47.766;8.846;2024-03-23T13:55:52;4.65;;;1.20;;
15952;SDS011;8075;47.766;8.846;2024-03-23T13:58:18;1.90;;;0.75;;
15952;SDS011;8075;47.766;8.846;2024-03-23T14:00:44;2.15;;;0.93;;
15952;SDS011;8075;47.766;8.846;2024-03-23T14:03:11;2.28;;;0.80;;
15952;SDS011;8075;47.766;8.846;2024-03-23T14:05:37;3.78;;;1.00;;
15952;SDS011;8075;47.766;8.846;2024-03-23T14:08:04;2.28;;;1.00;;
15952;SDS011;8075;47.766;8.846;2024-03-23T14:10:30;2.72;;;0.60;;
15952;SDS011;8075;47.766;8.846;2024-03-23T14:12:56;1.70;;;0.70;;
15952;SDS011;8075;47.766;8.846;2024-03-23T14:15:24;3.03;;;0.80;;
15952;SDS011;8075;47.766;8.846;2024-03-23T14:17:50;1.52;;;0.70;;
15952;SDS011;8075;47.766;8.846;2024-03-23T14:20:16;2.33;;;0.90;;
15952;SDS011;8075;47.766;8.846;2024-03-23T14:22:42;3.40;;;1.00;;
15952;SDS011;8075;47.766;8.846;2024-03-23T14:25:09;3.40;;;0.90;;
15952;SDS011;8075;47.766;8.846;2024-03-23T14:27:36;2.42;;;0.90;;
15952;SDS011;8075;47.766;8.846;2024-03-23T14:30:03;2.78;;;0.95;;
15952;SDS011;8075;47.766;8.846;2024-03-23T14:32:30;2.67;;;0.80;;
15952;SDS011;8075;47.766;8.846;2024-03-23T14:34:59;3.08;;;0.82;;
15952;SDS011;8075;47.766;8.846;2024-03-23T14:37:25;3.45;;;0.90;;
15952;SDS011;8075;47.766;8.846;2024-03-23T14:39:51;3.90;;;1.23;;
15952;SDS011;8075;47.766;8.846;2024-03-23T14:42:17;3.60;;;1.35;;
15952;SDS011;8075;47.766;8.846;2024-03-23T14:44:43;5.28;;;1.40;;
15952;SDS011;8075;47.766;8.846;2024-03-23T14:47:09;4.73;;;1.20;;
15952;SDS011;8075;47.766;8.846;2024-03-23T14:49:35;2.42;;;1.13;;
15952;SDS011;8075;47.766;8.846;2024-03-23T14:52:01;2.55;;;0.98;;
15952;SDS011;8075;47.766;8.846;2024-03-23T14:54:27;3.00;;;1.00;;
15952;SDS011;8075;47.766;8.846;2024-03-23T14:56:53;2.72;;;1.02;;
15952;SDS011;8075;47.766;8.846;2024-03-23T14:59:21;3.07;;;1.00;;
15952;SDS011;8075;47.766;8.846;2024-03-23T15:01:47;2.60;;;0.90;;
15952;SDS011;8075;47.766;8.846;2024-03-23T15:04:13;3.25;;;1.10;;
15952;SDS011;8075;47.766;8.846;2024-03-23T15:06:39;3.15;;;1.00;;
15952;SDS011;8075;47.766;8.846;2024-03-23T15:09:05;3.63;;;1.38;;
15952;SDS011;8075;47.766;8.846;2024-03-23T15:11:33;3.00;;;1.10;;
15952;SDS011;8075;47.766;8.846;2024-03-23T15:13:59;2.90;;;1.17;;
15952;SDS011;8075;47.766;8.846;2024-03-23T15:16:25;3.13;;;1.00;;
15952;SDS011;8075;47.766;8.846;2024-03-23T15:18:51;2.28;;;0.88;;
15952;SDS011;8075;47.766;8.846;2024-03-23T15:21:17;3.20;;;1.05;;
15952;SDS011;8075;47.766;8.846;2024-03-23T15:23:46;3.53;;;1.07;;
15952;SDS011;8075;47.766;8.846;2024-03-23T15:26:12;2.78;;;0.82;;
15952;SDS011;8075;47.766;8.846;2024-03-23T15:28:38;3.63;;;1.05;;
15952;SDS011;8075;47.766;8.846;2024-03-23T15:31:23;2.08;;;0.80;;
15952;SDS011;8075;47.766;8.846;2024-03-23T15:33:49;1.50;;;0.60;;
15952;SDS011;8075;47.766;8.846;2024-03-23T15:36:15;3.42;;;0.88;;
15952;SDS011;8075;47.766;8.846;2024-03-23T15:38:41;1.95;;;0.75;;
15952;SDS011;8075;47.766;8.846;2024-03-23T15:41:08;1.30;;;0.60;;
15952;SDS011;8075;47.766;8.846;2024-03-23T15:43:34;2.97;;;0.80;;
15952;SDS011;8075;47.766;8.846;2024-03-23T15:46:01;2.90;;;0.80;;
15952;SDS011;8075;47.766;8.846;2024-03-23T15:48:27;1.98;;;0.70;;
15952;SDS011;8075;47.766;8.846;2024-03-23T15:50:54;2.17;;;0.80;;
15952;SDS011;8075;47.766;8.846;2024-03-23T15:53:20;3.47;;;0.90;;